sensor_id;sensor_type;location;lat;lon;timestamp;P1;durP1;ratioP1;P2;durP2;ratioP2
5650;SDS011;40241;52.684;9.758;2023-02-11T00:01:29;29.37;;;17.53;;
5650;SDS011;40241;52.684;9.758;2023-02-11T00:03:57;33.27;;;18.50;;
5650;SDS011;40241;52.684;9.758;2023-02-11T00:06:24;34.70;;;19.60;;
5650;SDS011;40241;52.684;9.758;2023-02-11T00:08:50;36.87;;;19.70;;
5650;SDS011;40241;52.684;9.758;2023-02-11T00:11:16;32.30;;;18.43;;
5650;SDS011;40241;52.684;9.758;2023-02-11T00:13:43;36.70;;;20.50;;
5650;SDS011;40241;52.684;9.758;2023-02-11T00:16:10;38.83;;;19.83;;
5650;SDS011;40241;52.684;9.758;2023-02-11T00:18:38;34.57;;;18.83;;
5650;SDS011;40241;52.684;9.758;2023-02-11T00:21:05;35.27;;;19.50;;
5650;SDS011;40241;52.684;9.758;2023-02-11T00:23:34;40.50;;;21.07;;
5650;SDS011;40241;52.684;9.758;2023-02-11T00:25:59;37.00;;;20.93;;
5650;SDS011;40241;52.684;9.758;2023-02-11T00:28:25;35.60;;;19.27;;
5650;SDS011;40241;52.684;9.758;2023-02-11T00:30:56;35.13;;;19.90;;
5650;SDS011;40241;52.684;9.758;2023-02-11T00:33:22;34.07;;;19.50;;
5650;SDS011;40241;52.684;9.758;2023-02-11T00:35:48;32.73;;;19.57;;
5650;SDS011;40241;52.684;9.758;2023-02-11T00:38:14;31.13;;;18.27;;
5650;SDS011;40241;52.684;9.758;2023-02-11T00:40:39;38.20;;;19.93;;
5650;SDS011;40241;52.684;9.758;2023-02-11T00:43:05;36.47;;;20.87;;
5650;SDS011;40241;52.684;9.758;2023-02-11T00:45:30;33.40;;;19.03;;
5650;SDS011;40241;52.684;9.758;2023-02-11T00:47:56;31.60;;;17.60;;
5650;SDS011;40241;52.684;9.758;2023-02-11T00:50:21;36.33;;;20.30;;
5650;SDS011;40241;52.684;9.758;2023-02-11T00:52:47;33.73;;;20.10;;
5650;SDS011;40241;52.684;9.758;2023-02-11T00:55:13;34.70;;;21.00;;
5650;SDS011;40241;52.684;9.758;2023-02-11T00:57:39;33.93;;;19.87;;
5650;SDS011;40241;52.684;9.758;2023-02-11T01:00:04;32.73;;;20.73;;
5650;SDS011;40241;52.684;9.758;2023-02-11T01:02:31;39.90;;;21.67;;
5650;SDS011;40241;52.684;9.758;2023-02-11T01:04:56;34.53;;;19.47;;
5650;SDS011;40241;52.684;9.758;2023-02-11T01:07:23;35.00;;;19.40;;
5650;SDS011;40241;52.684;9.758;2023-02-11T01:09:49;34.57;;;20.37;;
5650;SDS011;40241;52.684;9.758;2023-02-11T01:12:14;39.17;;;19.83;;
5650;SDS011;40241;52.684;9.758;2023-02-11T01:14:40;40.90;;;20.67;;
5650;SDS011;40241;52.684;9.758;2023-02-11T01:17:05;33.03;;;17.60;;
5650;SDS011;40241;52.684;9.758;2023-02-11T01:19:31;34.77;;;20.70;;
5650;SDS011;40241;52.684;9.758;2023-02-11T01:21:56;39.87;;;22.10;;
5650;SDS011;40241;52.684;9.758;2023-02-11T01:24:21;36.73;;;20.83;;
5650;SDS011;40241;52.684;9.758;2023-02-11T01:26:47;36.90;;;19.50;;
5650;SDS011;40241;52.684;9.758;2023-02-11T01:29:12;34.80;;;20.10;;
5650;SDS011;40241;52.684;9.758;2023-02-11T01:31:37;35.40;;;19.90;;
5650;SDS011;40241;52.684;9.758;2023-02-11T01:34:03;37.83;;;20.00;;
5650;SDS011;40241;52.684;9.758;2023-02-11T01:36:28;38.17;;;19.93;;
5650;SDS011;40241;52.684;9.758;2023-02-11T01:38:53;36.87;;;20.00;;
5650;SDS011;40241;52.684;9.758;2023-02-11T01:41:19;37.57;;;21.00;;
5650;SDS011;40241;52.684;9.758;2023-02-11T01:43:45;34.77;;;19.30;;
5650;SDS011;40241;52.684;9.758;2023-02-11T01:46:16;38.27;;;20.17;;
5650;SDS011;40241;52.684;9.758;2023-02-11T01:48:48;36.60;;;19.87;;
5650;SDS011;40241;52.684;9.758;2023-02-11T01:51:18;38.23;;;19.70;;
5650;SDS011;40241;52.684;9.758;2023-02-11T01:53:47;34.30;;;20.27;;
5650;SDS011;40241;52.684;9.758;2023-02-11T01:56:34;40.07;;;21.60;;
5650;SDS011;40241;52.684;9.758;2023-02-11T01:59:43;41.43;;;21.60;;
5650;SDS011;40241;52.684;9.758;2023-02-11T02:02:11;39.27;;;20.13;;
5650;SDS011;40241;52.684;9.758;2023-02-11T02:04:51;40.20;;;20.53;;
5650;SDS011;40241;52.684;9.758;2023-02-11T02:07:38;35.80;;;19.23;;
5650;SDS011;40241;52.684;9.758;2023-02-11T02:10:14;38.60;;;19.83;;
5650;SDS011;40241;52.684;9.758;2023-02-11T02:12:44;35.50;;;20.73;;
5650;SDS011;40241;52.684;9.758;2023-02-11T02:15:20;38.17;;;21.00;;
5650;SDS011;40241;52.684;9.758;2023-02-11T02:17:51;41.30;;;22.37;;
5650;SDS011;40241;52.684;9.758;2023-02-11T02:28:46;31.87;;;19.80;;
5650;SDS011;40241;52.684;9.758;2023-02-11T02:31:29;41.13;;;20.17;;
5650;SDS011;40241;52.684;9.758;2023-02-11T02:34:01;35.70;;;19.40;;
5650;SDS011;40241;52.684;9.758;2023-02-11T02:36:50;36.57;;;19.50;;
5650;SDS011;40241;52.684;9.758;2023-02-11T02:39:19;40.37;;;22.00;;
5650;SDS011;40241;52.684;9.758;2023-02-11T02:41:47;37.47;;;20.77;;
5650;SDS011;40241;52.684;9.758;2023-02-11T02:44:14;39.90;;;21.87;;
5650;SDS011;40241;52.684;9.758;2023-02-11T02:46:40;33.60;;;18.73;;
5650;SDS011;40241;52.684;9.758;2023-02-11T02:49:05;33.83;;;19.80;;
5650;SDS011;40241;52.684;9.758;2023-02-11T03:08:33;35.10;;;18.43;;
5650;SDS011;40241;52.684;9.758;2023-02-11T03:11:10;36.77;;;18.50;;
5650;SDS011;40241;52.684;9.758;2023-02-11T03:13:40;43.57;;;21.03;;
5650;SDS011;40241;52.684;9.758;2023-02-11T03:16:12;36.83;;;20.50;;
5650;SDS011;40241;52.684;9.758;2023-02-11T03:18:41;36.57;;;20.60;;
5650;SDS011;40241;52.684;9.758;2023-02-11T03:21:12;34.07;;;18.93;;
5650;SDS011;40241;52.684;9.758;2023-02-11T03:23:43;40.90;;;19.70;;
5650;SDS011;40241;52.684;9.758;2023-02-11T03:29:04;35.10;;;20.90;;
5650;SDS011;40241;52.684;9.758;2023-02-11T03:31:50;37.43;;;19.43;;
5650;SDS011;40241;52.684;9.758;2023-02-11T03:34:45;30.97;;;18.10;;
5650;SDS011;40241;52.684;9.758;2023-02-11T03:37:18;35.57;;;18.93;;
5650;SDS011;40241;52.684;9.758;2023-02-11T03:39:52;37.43;;;19.30;;
5650;SDS011;40241;52.684;9.758;2023-02-11T03:42:22;41.73;;;21.50;;
5650;SDS011;40241;52.684;9.758;2023-02-11T03:45:04;40.57;;;19.10;;
5650;SDS011;40241;52.684;9.758;2023-02-11T03:47:34;39.93;;;19.13;;
5650;SDS011;40241;52.684;9.758;2023-02-11T03:50:03;40.67;;;19.63;;
5650;SDS011;40241;52.684;9.758;2023-02-11T03:52:32;34.67;;;19.43;;
5650;SDS011;40241;52.684;9.758;2023-02-11T03:55:00;36.77;;;18.53;;
5650;SDS011;40241;52.684;9.758;2023-02-11T03:57:30;40.43;;;19.80;;
5650;SDS011;40241;52.684;9.758;2023-02-11T03:59:58;36.83;;;18.83;;
5650;SDS011;40241;52.684;9.758;2023-02-11T04:02:26;36.97;;;20.37;;
5650;SDS011;40241;52.684;9.758;2023-02-11T04:04:54;45.50;;;19.20;;
5650;SDS011;40241;52.684;9.758;2023-02-11T04:07:19;37.90;;;19.97;;
5650;SDS011;40241;52.684;9.758;2023-02-11T04:09:45;34.40;;;18.60;;
5650;SDS011;40241;52.684;9.758;2023-02-11T04:12:10;37.13;;;19.90;;
5650;SDS011;40241;52.684;9.758;2023-02-11T04:14:36;40.77;;;19.87;;
5650;SDS011;40241;52.684;9.758;2023-02-11T04:17:01;37.00;;;18.37;;
5650;SDS011;40241;52.684;9.758;2023-02-11T04:19:27;36.20;;;19.13;;
5650;SDS011;40241;52.684;9.758;2023-02-11T04:21:53;31.93;;;18.13;;
5650;SDS011;40241;52.684;9.758;2023-02-11T04:24:18;40.80;;;20.57;;
5650;SDS011;40241;52.684;9.758;2023-02-11T04:26:43;34.47;;;18.70;;
5650;SDS011;40241;52.684;9.758;2023-02-11T04:29:09;37.93;;;19.60;;
5650;SDS011;40241;52.684;9.758;2023-02-11T04:31:34;39.00;;;19.23;;
5650;SDS011;40241;52.684;9.758;2023-02-11T04:34:00;34.97;;;20.10;;
5650;SDS011;40241;52.684;9.758;2023-02-11T04:36:25;40.80;;;17.20;;
5650;SDS011;40241;52.684;9.758;2023-02-11T04:38:50;36.50;;;19.47;;
5650;SDS011;40241;52.684;9.758;2023-02-11T04:41:16;36.20;;;19.70;;
5650;SDS011;40241;52.684;9.758;2023-02-11T04:43:41;36.40;;;19.07;;
5650;SDS011;40241;52.684;9.758;2023-02-11T04:46:06;31.93;;;18.50;;
5650;SDS011;40241;52.684;9.758;2023-02-11T04:48:32;33.77;;;18.90;;
5650;SDS011;40241;52.684;9.758;2023-02-11T04:50:58;31.00;;;17.90;;
5650;SDS011;40241;52.684;9.758;2023-02-11T04:53:24;31.33;;;17.47;;
5650;SDS011;40241;52.684;9.758;2023-02-11T04:55:50;29.70;;;17.80;;
5650;SDS011;40241;52.684;9.758;2023-02-11T04:58:16;30.43;;;17.10;;
5650;SDS011;40241;52.684;9.758;2023-02-11T05:00:42;35.80;;;19.17;;
5650;SDS011;40241;52.684;9.758;2023-02-11T05:03:07;33.20;;;17.33;;
5650;SDS011;40241;52.684;9.758;2023-02-11T05:05:32;32.07;;;16.90;;
5650;SDS011;40241;52.684;9.758;2023-02-11T05:07:58;27.53;;;16.70;;
5650;SDS011;40241;52.684;9.758;2023-02-11T05:10:23;28.37;;;17.40;;
5650;SDS011;40241;52.684;9.758;2023-02-11T05:12:48;32.00;;;17.87;;
5650;SDS011;40241;52.684;9.758;2023-02-11T05:15:14;32.57;;;17.50;;
5650;SDS011;40241;52.684;9.758;2023-02-11T05:17:40;33.10;;;17.93;;
5650;SDS011;40241;52.684;9.758;2023-02-11T05:20:05;29.97;;;17.10;;
5650;SDS011;40241;52.684;9.758;2023-02-11T05:22:31;33.17;;;16.67;;
5650;SDS011;40241;52.684;9.758;2023-02-11T05:24:56;33.17;;;18.10;;
5650;SDS011;40241;52.684;9.758;2023-02-11T05:27:22;29.90;;;16.90;;
5650;SDS011;40241;52.684;9.758;2023-02-11T05:29:47;30.63;;;17.10;;
5650;SDS011;40241;52.684;9.758;2023-02-11T05:32:12;30.13;;;18.40;;
5650;SDS011;40241;52.684;9.758;2023-02-11T05:34:38;34.30;;;17.60;;
5650;SDS011;40241;52.684;9.758;2023-02-11T05:37:03;28.10;;;17.20;;
5650;SDS011;40241;52.684;9.758;2023-02-11T05:39:29;31.67;;;17.50;;
5650;SDS011;40241;52.684;9.758;2023-02-11T05:41:54;30.97;;;17.40;;
5650;SDS011;40241;52.684;9.758;2023-02-11T05:44:19;43.53;;;18.57;;
5650;SDS011;40241;52.684;9.758;2023-02-11T05:46:45;27.60;;;15.20;;
5650;SDS011;40241;52.684;9.758;2023-02-11T05:49:10;27.67;;;16.80;;
5650;SDS011;40241;52.684;9.758;2023-02-11T05:51:35;34.10;;;18.20;;
5650;SDS011;40241;52.684;9.758;2023-02-11T05:54:01;30.27;;;18.53;;
5650;SDS011;40241;52.684;9.758;2023-02-11T05:56:26;35.30;;;17.00;;
5650;SDS011;40241;52.684;9.758;2023-02-11T05:58:51;33.20;;;16.97;;
5650;SDS011;40241;52.684;9.758;2023-02-11T06:01:17;39.33;;;19.20;;
5650;SDS011;40241;52.684;9.758;2023-02-11T06:03:42;31.03;;;16.43;;
5650;SDS011;40241;52.684;9.758;2023-02-11T06:06:09;28.70;;;15.90;;
5650;SDS011;40241;52.684;9.758;2023-02-11T06:08:35;33.43;;;17.87;;
5650;SDS011;40241;52.684;9.758;2023-02-11T06:11:01;34.97;;;17.97;;
5650;SDS011;40241;52.684;9.758;2023-02-11T06:13:26;28.07;;;16.93;;
5650;SDS011;40241;52.684;9.758;2023-02-11T06:15:55;30.47;;;17.60;;
5650;SDS011;40241;52.684;9.758;2023-02-11T06:18:22;28.40;;;16.50;;
5650;SDS011;40241;52.684;9.758;2023-02-11T06:20:47;29.80;;;17.20;;
5650;SDS011;40241;52.684;9.758;2023-02-11T06:23:13;29.53;;;17.80;;
5650;SDS011;40241;52.684;9.758;2023-02-11T06:25:38;22.17;;;14.30;;
5650;SDS011;40241;52.684;9.758;2023-02-11T06:28:03;29.83;;;15.37;;
5650;SDS011;40241;52.684;9.758;2023-02-11T06:30:29;29.20;;;15.07;;
5650;SDS011;40241;52.684;9.758;2023-02-11T06:32:54;25.23;;;15.43;;
5650;SDS011;40241;52.684;9.758;2023-02-11T06:35:19;31.40;;;15.10;;
5650;SDS011;40241;52.684;9.758;2023-02-11T06:37:45;23.70;;;15.27;;
5650;SDS011;40241;52.684;9.758;2023-02-11T06:40:11;26.60;;;15.90;;
5650;SDS011;40241;52.684;9.758;2023-02-11T06:42:37;27.27;;;15.50;;
5650;SDS011;40241;52.684;9.758;2023-02-11T06:45:06;31.13;;;15.90;;
5650;SDS011;40241;52.684;9.758;2023-02-11T06:47:33;27.97;;;14.37;;
5650;SDS011;40241;52.684;9.758;2023-02-11T06:49:59;24.10;;;13.17;;
5650;SDS011;40241;52.684;9.758;2023-02-11T06:52:24;24.10;;;13.87;;
5650;SDS011;40241;52.684;9.758;2023-02-11T06:54:50;31.37;;;15.13;;
5650;SDS011;40241;52.684;9.758;2023-02-11T06:57:15;27.07;;;14.40;;
5650;SDS011;40241;52.684;9.758;2023-02-11T06:59:40;28.53;;;13.60;;
5650;SDS011;40241;52.684;9.758;2023-02-11T07:02:07;25.33;;;14.20;;
5650;SDS011;40241;52.684;9.758;2023-02-11T07:04:34;27.13;;;13.90;;
5650;SDS011;40241;52.684;9.758;2023-02-11T07:06:59;27.97;;;14.73;;
5650;SDS011;40241;52.684;9.758;2023-02-11T07:09:24;24.00;;;13.17;;
5650;SDS011;40241;52.684;9.758;2023-02-11T07:11:50;24.87;;;13.80;;
5650;SDS011;40241;52.684;9.758;2023-02-11T07:14:15;25.23;;;14.50;;
5650;SDS011;40241;52.684;9.758;2023-02-11T07:16:41;26.37;;;14.03;;
5650;SDS011;40241;52.684;9.758;2023-02-11T07:19:06;26.47;;;14.77;;
5650;SDS011;40241;52.684;9.758;2023-02-11T07:21:32;23.70;;;12.77;;
5650;SDS011;40241;52.684;9.758;2023-02-11T07:23:58;25.10;;;13.57;;
5650;SDS011;40241;52.684;9.758;2023-02-11T07:26:23;27.43;;;13.67;;
5650;SDS011;40241;52.684;9.758;2023-02-11T07:28:50;17.00;;;11.77;;
5650;SDS011;40241;52.684;9.758;2023-02-11T07:31:17;20.30;;;13.17;;
5650;SDS011;40241;52.684;9.758;2023-02-11T07:33:45;24.03;;;13.97;;
5650;SDS011;40241;52.684;9.758;2023-02-11T07:36:11;19.30;;;13.20;;
5650;SDS011;40241;52.684;9.758;2023-02-11T07:38:38;19.67;;;12.47;;
5650;SDS011;40241;52.684;9.758;2023-02-11T07:41:08;24.97;;;14.17;;
5650;SDS011;40241;52.684;9.758;2023-02-11T07:43:35;24.27;;;13.27;;
5650;SDS011;40241;52.684;9.758;2023-02-11T07:46:02;22.93;;;13.97;;
5650;SDS011;40241;52.684;9.758;2023-02-11T07:48:31;21.03;;;13.57;;
5650;SDS011;40241;52.684;9.758;2023-02-11T07:51:04;27.40;;;14.40;;
5650;SDS011;40241;52.684;9.758;2023-02-11T07:53:36;23.60;;;14.00;;
5650;SDS011;40241;52.684;9.758;2023-02-11T07:56:02;28.63;;;12.67;;
5650;SDS011;40241;52.684;9.758;2023-02-11T07:58:29;23.10;;;12.73;;
5650;SDS011;40241;52.684;9.758;2023-02-11T08:00:59;23.93;;;13.57;;
5650;SDS011;40241;52.684;9.758;2023-02-11T08:03:25;31.90;;;13.80;;
5650;SDS011;40241;52.684;9.758;2023-02-11T08:05:50;26.40;;;13.73;;
5650;SDS011;40241;52.684;9.758;2023-02-11T08:08:16;21.33;;;12.30;;
5650;SDS011;40241;52.684;9.758;2023-02-11T08:10:41;25.53;;;12.53;;
5650;SDS011;40241;52.684;9.758;2023-02-11T08:13:06;22.37;;;12.70;;
5650;SDS011;40241;52.684;9.758;2023-02-11T08:15:31;21.33;;;12.07;;
5650;SDS011;40241;52.684;9.758;2023-02-11T08:17:57;24.77;;;11.93;;
5650;SDS011;40241;52.684;9.758;2023-02-11T08:20:22;23.60;;;13.30;;
5650;SDS011;40241;52.684;9.758;2023-02-11T08:22:47;19.80;;;12.73;;
5650;SDS011;40241;52.684;9.758;2023-02-11T08:25:13;22.00;;;11.97;;
5650;SDS011;40241;52.684;9.758;2023-02-11T08:27:38;20.30;;;13.07;;
5650;SDS011;40241;52.684;9.758;2023-02-11T08:30:04;21.50;;;13.20;;
5650;SDS011;40241;52.684;9.758;2023-02-11T08:32:29;21.67;;;12.50;;
5650;SDS011;40241;52.684;9.758;2023-02-11T08:34:55;24.33;;;12.80;;
5650;SDS011;40241;52.684;9.758;2023-02-11T08:37:20;19.63;;;12.43;;
5650;SDS011;40241;52.684;9.758;2023-02-11T08:39:46;24.43;;;12.70;;
5650;SDS011;40241;52.684;9.758;2023-02-11T08:42:12;21.50;;;12.70;;
5650;SDS011;40241;52.684;9.758;2023-02-11T08:44:39;23.33;;;12.17;;
5650;SDS011;40241;52.684;9.758;2023-02-11T08:47:05;23.57;;;13.37;;
5650;SDS011;40241;52.684;9.758;2023-02-11T08:49:30;26.47;;;13.00;;
5650;SDS011;40241;52.684;9.758;2023-02-11T08:51:57;29.93;;;14.03;;
5650;SDS011;40241;52.684;9.758;2023-02-11T08:54:27;22.47;;;12.40;;
5650;SDS011;40241;52.684;9.758;2023-02-11T08:56:54;22.13;;;13.13;;
5650;SDS011;40241;52.684;9.758;2023-02-11T08:59:19;19.83;;;12.10;;
5650;SDS011;40241;52.684;9.758;2023-02-11T09:01:45;24.73;;;11.70;;
5650;SDS011;40241;52.684;9.758;2023-02-11T09:04:11;22.97;;;13.40;;
5650;SDS011;40241;52.684;9.758;2023-02-11T09:06:37;24.10;;;12.10;;
5650;SDS011;40241;52.684;9.758;2023-02-11T09:09:03;28.33;;;12.07;;
5650;SDS011;40241;52.684;9.758;2023-02-11T09:11:30;22.93;;;12.40;;
5650;SDS011;40241;52.684;9.758;2023-02-11T09:13:58;27.93;;;13.10;;
5650;SDS011;40241;52.684;9.758;2023-02-11T09:16:25;24.87;;;12.17;;
5650;SDS011;40241;52.684;9.758;2023-02-11T09:18:52;24.40;;;12.97;;
5650;SDS011;40241;52.684;9.758;2023-02-11T09:21:20;22.20;;;13.17;;
5650;SDS011;40241;52.684;9.758;2023-02-11T09:23:45;25.97;;;13.53;;
5650;SDS011;40241;52.684;9.758;2023-02-11T09:26:22;21.63;;;12.47;;
5650;SDS011;40241;52.684;9.758;2023-02-11T09:28:49;25.20;;;13.70;;
5650;SDS011;40241;52.684;9.758;2023-02-11T09:31:17;24.23;;;13.60;;
5650;SDS011;40241;52.684;9.758;2023-02-11T09:33:45;22.50;;;14.00;;
5650;SDS011;40241;52.684;9.758;2023-02-11T09:36:13;25.70;;;12.80;;
5650;SDS011;40241;52.684;9.758;2023-02-11T09:38:39;21.97;;;13.67;;
5650;SDS011;40241;52.684;9.758;2023-02-11T09:41:11;25.47;;;13.37;;
5650;SDS011;40241;52.684;9.758;2023-02-11T09:44:02;23.47;;;13.73;;
5650;SDS011;40241;52.684;9.758;2023-02-11T09:46:35;23.73;;;12.73;;
5650;SDS011;40241;52.684;9.758;2023-02-11T09:49:05;26.30;;;13.73;;
5650;SDS011;40241;52.684;9.758;2023-02-11T09:51:41;21.53;;;13.10;;
5650;SDS011;40241;52.684;9.758;2023-02-11T09:54:15;25.80;;;13.60;;
5650;SDS011;40241;52.684;9.758;2023-02-11T09:56:47;24.07;;;11.90;;
5650;SDS011;40241;52.684;9.758;2023-02-11T09:59:13;22.07;;;12.53;;
5650;SDS011;40241;52.684;9.758;2023-02-11T10:01:47;22.80;;;13.90;;
5650;SDS011;40241;52.684;9.758;2023-02-11T10:07:07;24.60;;;13.23;;
5650;SDS011;40241;52.684;9.758;2023-02-11T10:17:49;26.83;;;11.80;;
5650;SDS011;40241;52.684;9.758;2023-02-11T10:20:36;19.00;;;12.40;;
5650;SDS011;40241;52.684;9.758;2023-02-11T10:23:09;19.20;;;12.00;;
5650;SDS011;40241;52.684;9.758;2023-02-11T10:25:43;22.70;;;12.47;;
5650;SDS011;40241;52.684;9.758;2023-02-11T10:28:14;17.30;;;11.90;;
5650;SDS011;40241;52.684;9.758;2023-02-11T10:30:48;22.30;;;13.50;;
5650;SDS011;40241;52.684;9.758;2023-02-11T10:33:23;21.37;;;12.50;;
5650;SDS011;40241;52.684;9.758;2023-02-11T10:35:51;22.83;;;12.80;;
5650;SDS011;40241;52.684;9.758;2023-02-11T10:38:17;25.03;;;12.10;;
5650;SDS011;40241;52.684;9.758;2023-02-11T10:40:42;22.60;;;12.30;;
5650;SDS011;40241;52.684;9.758;2023-02-11T10:43:18;25.63;;;13.63;;
5650;SDS011;40241;52.684;9.758;2023-02-11T10:45:48;20.37;;;12.77;;
5650;SDS011;40241;52.684;9.758;2023-02-11T10:51:16;24.70;;;12.57;;
5650;SDS011;40241;52.684;9.758;2023-02-11T10:53:44;22.03;;;12.70;;
5650;SDS011;40241;52.684;9.758;2023-02-11T10:56:13;19.53;;;12.07;;
5650;SDS011;40241;52.684;9.758;2023-02-11T10:58:53;25.83;;;12.67;;
5650;SDS011;40241;52.684;9.758;2023-02-11T11:04:04;27.77;;;12.47;;
5650;SDS011;40241;52.684;9.758;2023-02-11T11:06:31;19.43;;;11.73;;
5650;SDS011;40241;52.684;9.758;2023-02-11T11:08:57;18.43;;;13.07;;
5650;SDS011;40241;52.684;9.758;2023-02-11T11:11:23;19.70;;;12.30;;
5650;SDS011;40241;52.684;9.758;2023-02-11T11:16:25;24.67;;;12.57;;
5650;SDS011;40241;52.684;9.758;2023-02-11T11:21:43;18.20;;;11.97;;
5650;SDS011;40241;52.684;9.758;2023-02-11T11:24:17;17.97;;;11.40;;
5650;SDS011;40241;52.684;9.758;2023-02-11T11:27:04;20.33;;;11.80;;
5650;SDS011;40241;52.684;9.758;2023-02-11T11:32:14;20.47;;;11.80;;
5650;SDS011;40241;52.684;9.758;2023-02-11T11:34:55;21.90;;;11.57;;
5650;SDS011;40241;52.684;9.758;2023-02-11T11:37:28;19.20;;;10.70;;
5650;SDS011;40241;52.684;9.758;2023-02-11T11:39:56;19.10;;;10.57;;
5650;SDS011;40241;52.684;9.758;2023-02-11T11:44:56;19.97;;;12.00;;
5650;SDS011;40241;52.684;9.758;2023-02-11T11:47:36;21.93;;;12.60;;
5650;SDS011;40241;52.684;9.758;2023-02-11T11:52:56;17.27;;;10.47;;
5650;SDS011;40241;52.684;9.758;2023-02-11T11:55:37;17.17;;;11.70;;
5650;SDS011;40241;52.684;9.758;2023-02-11T11:58:14;16.33;;;11.17;;
5650;SDS011;40241;52.684;9.758;2023-02-11T12:06:19;15.57;;;11.10;;
5650;SDS011;40241;52.684;9.758;2023-02-11T12:14:23;22.50;;;12.20;;
5650;SDS011;40241;52.684;9.758;2023-02-11T12:22:26;16.03;;;10.57;;
5650;SDS011;40241;52.684;9.758;2023-02-11T12:28:00;22.63;;;10.87;;
5650;SDS011;40241;52.684;9.758;2023-02-11T12:33:34;18.53;;;11.17;;
5650;SDS011;40241;52.684;9.758;2023-02-11T12:39:01;17.60;;;11.97;;
5650;SDS011;40241;52.684;9.758;2023-02-11T12:45:27;14.87;;;9.97;;
5650;SDS011;40241;52.684;9.758;2023-02-11T12:51:04;14.60;;;11.30;;
5650;SDS011;40241;52.684;9.758;2023-02-11T12:53:45;14.30;;;10.23;;
5650;SDS011;40241;52.684;9.758;2023-02-11T13:02:21;17.80;;;10.23;;
5650;SDS011;40241;52.684;9.758;2023-02-11T13:04:53;18.17;;;11.80;;
5650;SDS011;40241;52.684;9.758;2023-02-11T13:07:34;16.87;;;11.73;;
5650;SDS011;40241;52.684;9.758;2023-02-11T13:10:08;17.80;;;10.67;;
5650;SDS011;40241;52.684;9.758;2023-02-11T13:12:54;16.90;;;11.77;;
5650;SDS011;40241;52.684;9.758;2023-02-11T13:15:40;17.43;;;9.93;;
5650;SDS011;40241;52.684;9.758;2023-02-11T13:18:16;17.63;;;11.87;;
5650;SDS011;40241;52.684;9.758;2023-02-11T13:20:50;16.73;;;10.97;;
5650;SDS011;40241;52.684;9.758;2023-02-11T13:26:01;14.73;;;10.00;;
5650;SDS011;40241;52.684;9.758;2023-02-11T13:31:40;16.93;;;10.20;;
5650;SDS011;40241;52.684;9.758;2023-02-11T13:37:23;15.93;;;9.90;;
5650;SDS011;40241;52.684;9.758;2023-02-11T13:40:01;14.33;;;10.20;;
5650;SDS011;40241;52.684;9.758;2023-02-11T13:42:27;14.47;;;10.50;;
5650;SDS011;40241;52.684;9.758;2023-02-11T13:44:54;14.07;;;10.20;;
5650;SDS011;40241;52.684;9.758;2023-02-11T13:49:54;20.67;;;11.00;;
5650;SDS011;40241;52.684;9.758;2023-02-11T13:52:23;19.70;;;11.00;;
5650;SDS011;40241;52.684;9.758;2023-02-11T13:54:51;14.63;;;10.60;;
5650;SDS011;40241;52.684;9.758;2023-02-11T13:59:45;17.77;;;10.53;;
5650;SDS011;40241;52.684;9.758;2023-02-11T14:10:59;14.73;;;10.17;;
5650;SDS011;40241;52.684;9.758;2023-02-11T14:16:26;15.13;;;10.27;;
5650;SDS011;40241;52.684;9.758;2023-02-11T14:29:16;15.03;;;10.77;;
5650;SDS011;40241;52.684;9.758;2023-02-11T14:31:58;20.50;;;9.90;;
5650;SDS011;40241;52.684;9.758;2023-02-11T14:37:40;16.90;;;9.77;;
5650;SDS011;40241;52.684;9.758;2023-02-11T14:40:17;16.40;;;8.93;;
5650;SDS011;40241;52.684;9.758;2023-02-11T14:42:49;15.50;;;9.10;;
5650;SDS011;40241;52.684;9.758;2023-02-11T14:45:17;14.23;;;8.73;;
5650;SDS011;40241;52.684;9.758;2023-02-11T14:53:10;19.47;;;10.30;;
5650;SDS011;40241;52.684;9.758;2023-02-11T14:55:40;15.80;;;10.10;;
5650;SDS011;40241;52.684;9.758;2023-02-11T14:58:17;18.30;;;10.00;;
5650;SDS011;40241;52.684;9.758;2023-02-11T15:00:46;16.73;;;11.13;;
5650;SDS011;40241;52.684;9.758;2023-02-11T15:06:00;18.33;;;10.53;;
5650;SDS011;40241;52.684;9.758;2023-02-11T15:08:29;14.37;;;10.20;;
5650;SDS011;40241;52.684;9.758;2023-02-11T15:10:56;17.50;;;11.10;;
5650;SDS011;40241;52.684;9.758;2023-02-11T15:13:23;21.20;;;11.03;;
5650;SDS011;40241;52.684;9.758;2023-02-11T15:15:53;19.70;;;11.60;;
5650;SDS011;40241;52.684;9.758;2023-02-11T15:18:22;14.23;;;10.43;;
5650;SDS011;40241;52.684;9.758;2023-02-11T15:20:53;17.67;;;10.30;;
5650;SDS011;40241;52.684;9.758;2023-02-11T15:23:23;16.70;;;11.20;;
5650;SDS011;40241;52.684;9.758;2023-02-11T15:25:51;18.73;;;12.17;;
5650;SDS011;40241;52.684;9.758;2023-02-11T15:28:27;20.60;;;11.60;;
5650;SDS011;40241;52.684;9.758;2023-02-11T15:30:55;17.40;;;11.60;;
5650;SDS011;40241;52.684;9.758;2023-02-11T15:33:37;18.67;;;10.73;;
5650;SDS011;40241;52.684;9.758;2023-02-11T15:36:03;18.20;;;10.90;;
5650;SDS011;40241;52.684;9.758;2023-02-11T15:38:28;17.97;;;10.57;;
5650;SDS011;40241;52.684;9.758;2023-02-11T15:40:59;15.63;;;10.07;;
5650;SDS011;40241;52.684;9.758;2023-02-11T15:46:15;20.20;;;10.17;;
5650;SDS011;40241;52.684;9.758;2023-02-11T15:53:59;17.57;;;9.93;;
5650;SDS011;40241;52.684;9.758;2023-02-11T15:56:33;15.67;;;9.40;;
5650;SDS011;40241;52.684;9.758;2023-02-11T15:59:17;15.00;;;9.50;;
5650;SDS011;40241;52.684;9.758;2023-02-11T16:01:46;15.00;;;9.50;;
5650;SDS011;40241;52.684;9.758;2023-02-11T16:04:19;15.87;;;9.67;;
5650;SDS011;40241;52.684;9.758;2023-02-11T16:06:47;15.70;;;9.00;;
5650;SDS011;40241;52.684;9.758;2023-02-11T16:14:44;15.43;;;9.70;;
5650;SDS011;40241;52.684;9.758;2023-02-11T16:19:34;16.73;;;9.50;;
5650;SDS011;40241;52.684;9.758;2023-02-11T16:22:06;18.53;;;9.77;;
5650;SDS011;40241;52.684;9.758;2023-02-11T16:24:35;17.73;;;9.87;;
5650;SDS011;40241;52.684;9.758;2023-02-11T16:27:04;17.30;;;10.00;;
5650;SDS011;40241;52.684;9.758;2023-02-11T16:29:33;17.67;;;10.07;;
5650;SDS011;40241;52.684;9.758;2023-02-11T16:32:20;12.43;;;8.90;;
5650;SDS011;40241;52.684;9.758;2023-02-11T16:34:47;13.40;;;9.30;;
5650;SDS011;40241;52.684;9.758;2023-02-11T16:37:13;22.77;;;9.90;;
5650;SDS011;40241;52.684;9.758;2023-02-11T16:39:38;17.63;;;9.27;;
5650;SDS011;40241;52.684;9.758;2023-02-11T16:42:04;13.67;;;9.50;;
5650;SDS011;40241;52.684;9.758;2023-02-11T16:44:31;17.47;;;8.87;;
5650;SDS011;40241;52.684;9.758;2023-02-11T16:46:57;12.47;;;8.50;;
5650;SDS011;40241;52.684;9.758;2023-02-11T16:49:35;15.83;;;9.20;;
5650;SDS011;40241;52.684;9.758;2023-02-11T16:52:04;18.27;;;9.33;;
5650;SDS011;40241;52.684;9.758;2023-02-11T16:54:31;11.93;;;8.77;;
5650;SDS011;40241;52.684;9.758;2023-02-11T16:56:57;16.77;;;8.57;;
5650;SDS011;40241;52.684;9.758;2023-02-11T16:59:23;12.70;;;8.37;;
5650;SDS011;40241;52.684;9.758;2023-02-11T17:01:49;14.20;;;9.30;;
5650;SDS011;40241;52.684;9.758;2023-02-11T17:06:48;13.30;;;8.07;;
5650;SDS011;40241;52.684;9.758;2023-02-11T17:09:21;16.13;;;9.17;;
5650;SDS011;40241;52.684;9.758;2023-02-11T17:11:48;13.53;;;7.90;;
5650;SDS011;40241;52.684;9.758;2023-02-11T17:14:14;12.10;;;8.20;;
5650;SDS011;40241;52.684;9.758;2023-02-11T17:16:40;12.57;;;8.20;;
5650;SDS011;40241;52.684;9.758;2023-02-11T17:19:06;18.33;;;9.00;;
5650;SDS011;40241;52.684;9.758;2023-02-11T17:21:33;11.17;;;8.43;;
5650;SDS011;40241;52.684;9.758;2023-02-11T17:23:59;13.10;;;7.70;;
5650;SDS011;40241;52.684;9.758;2023-02-11T17:26:24;23.73;;;9.30;;
5650;SDS011;40241;52.684;9.758;2023-02-11T17:28:49;11.90;;;8.80;;